createdAt,value
2019-02-04T00:01:26.060Z,209.70
2019-02-04T00:03:56.004Z,244.83
2019-02-04T00:06:25.581Z,217.70
2019-02-04T00:08:54.940Z,216.30
2019-02-04T00:11:24.532Z,200.03
2019-02-04T00:13:54.762Z,223.13
2019-02-04T00:16:24.360Z,215.73
2019-02-04T00:18:53.871Z,192.40
2019-02-04T00:21:23.257Z,198.50
2019-02-04T00:23:52.942Z,163.23
2019-02-04T00:26:22.659Z,170.03
2019-02-04T00:28:52.150Z,202.10
2019-02-04T00:31:21.911Z,209.93
2019-02-04T00:33:51.335Z,203.13
2019-02-04T00:36:20.823Z,198.97
2019-02-04T00:38:50.328Z,180.83
2019-02-04T00:41:19.744Z,203.23
2019-02-04T00:43:49.133Z,180.07
2019-02-04T00:46:18.681Z,172.37
2019-02-04T00:48:48.222Z,213.07
2019-02-04T00:51:17.610Z,191.47
2019-02-04T00:53:47.103Z,164.93
2019-02-04T00:56:16.530Z,180.23
2019-02-04T00:58:45.910Z,149.97
2019-02-04T01:01:15.393Z,148.23
2019-02-04T01:03:45.419Z,168.47
2019-02-04T01:06:14.894Z,194.60
2019-02-04T01:08:44.279Z,195.47
2019-02-04T01:11:13.889Z,173.20
2019-02-04T01:13:43.750Z,181.23
2019-02-04T01:16:13.124Z,178.43
2019-02-04T01:18:42.557Z,178.47
2019-02-04T01:21:12.035Z,195.93
2019-02-04T01:23:41.537Z,181.43
2019-02-04T01:26:10.958Z,194.33
2019-02-04T01:28:40.506Z,196.33
2019-02-04T01:31:09.989Z,191.23
2019-02-04T01:33:39.517Z,181.67
2019-02-04T01:36:08.996Z,205.93
2019-02-04T01:38:38.496Z,185.97
2019-02-04T01:41:07.920Z,188.27
2019-02-04T01:43:37.304Z,183.73
2019-02-04T01:46:06.779Z,175.77
2019-02-04T01:48:36.301Z,202.90
2019-02-04T01:51:05.690Z,175.23
2019-02-04T01:53:35.081Z,178.37
2019-02-04T01:56:04.995Z,200.20
2019-02-04T01:58:34.481Z,190.23
2019-02-04T02:01:04.082Z,177.57
2019-02-04T02:03:33.521Z,181.87
2019-02-04T02:06:04.251Z,173.23
2019-02-04T02:08:33.748Z,177.53
2019-02-04T02:11:03.181Z,178.00
2019-02-04T02:13:32.662Z,175.30
2019-02-04T02:16:02.822Z,181.13
2019-02-04T02:18:32.358Z,177.77
2019-02-04T02:21:01.832Z,194.93
2019-02-04T02:23:31.693Z,189.17
2019-02-04T02:26:01.117Z,177.87
2019-02-04T02:28:30.496Z,174.90
2019-02-04T02:31:00.080Z,175.53
2019-02-04T02:33:29.599Z,177.97
2019-02-04T02:35:59.088Z,186.07
2019-02-04T02:38:28.552Z,184.40
2019-02-04T02:40:58.077Z,179.80
2019-02-04T02:43:27.564Z,171.97
2019-02-04T02:45:56.939Z,186.67
2019-02-04T02:48:26.367Z,180.87
2019-02-04T02:50:55.853Z,181.23
2019-02-04T02:53:25.334Z,174.10
2019-02-04T02:55:54.760Z,174.97
2019-02-04T02:58:24.152Z,181.57
2019-02-04T03:00:53.644Z,174.77
2019-02-04T03:03:23.152Z,175.20
2019-02-04T03:05:52.536Z,174.53
2019-02-04T03:08:22.024Z,173.63
2019-02-04T03:10:51.653Z,185.93
2019-02-04T03:13:21.182Z,173.67
2019-02-04T03:15:50.559Z,236.43
2019-02-04T03:18:20.587Z,183.80
2019-02-04T03:20:50.459Z,172.47
2019-02-04T03:23:19.931Z,170.57
2019-02-04T03:25:49.360Z,172.07
2019-02-04T03:28:18.731Z,171.13
2019-02-04T03:30:48.216Z,169.90
2019-02-04T03:33:17.840Z,177.97
2019-02-04T03:35:47.306Z,181.20
2019-02-04T03:38:16.783Z,173.83
2019-02-04T03:40:46.209Z,177.70
2019-02-04T03:43:15.626Z,176.50
2019-02-04T03:45:45.141Z,180.33
2019-02-04T03:48:14.826Z,184.93
2019-02-04T03:50:44.221Z,178.87
2019-02-04T03:53:13.632Z,182.63
2019-02-04T03:55:43.137Z,190.97
2019-02-04T03:58:12.604Z,186.60
2019-02-04T04:00:42.005Z,200.70
2019-02-04T04:03:11.927Z,212.30
2019-02-04T04:05:41.490Z,208.73
2019-02-04T04:08:11.082Z,184.87
2019-02-04T04:10:40.620Z,191.97
2019-02-04T04:13:10.141Z,197.90
2019-02-04T04:15:39.529Z,198.17
2019-02-04T04:18:15.886Z,206.80
2019-02-04T04:20:40.151Z,191.00
2019-02-04T04:23:09.650Z,199.43
2019-02-04T04:25:39.066Z,185.17
2019-02-04T04:28:08.451Z,189.37
2019-02-04T04:30:38.323Z,188.70
2019-02-04T04:33:07.847Z,182.73
2019-02-04T04:35:37.244Z,187.97
2019-02-04T04:38:06.619Z,179.50
2019-02-04T04:40:36.136Z,186.20
2019-02-04T04:43:05.710Z,172.50
2019-02-04T04:45:35.370Z,190.27
2019-02-04T04:48:04.895Z,170.70
2019-02-04T04:50:34.371Z,170.90
2019-02-04T04:53:03.759Z,171.47
2019-02-04T04:55:33.449Z,167.10
2019-02-04T04:58:02.927Z,175.13
2019-02-04T05:00:32.957Z,168.40
2019-02-04T05:03:02.397Z,162.97
2019-02-04T05:05:31.889Z,158.40
2019-02-04T05:08:01.360Z,160.83
2019-02-04T05:10:30.980Z,144.63
2019-02-04T05:13:00.645Z,154.00
2019-02-04T05:15:30.310Z,153.70
2019-02-04T05:18:00.027Z,155.80
2019-02-04T05:20:29.410Z,153.77
2019-02-04T05:22:58.900Z,152.67
2019-02-04T05:25:28.611Z,143.60
2019-02-04T05:27:58.115Z,125.63
2019-02-04T05:30:27.631Z,129.63
2019-02-04T05:32:57.162Z,129.17
2019-02-04T05:35:26.545Z,126.80
2019-02-04T05:37:55.934Z,119.90
2019-02-04T05:40:25.452Z,132.57
2019-02-04T05:42:54.944Z,119.30
2019-02-04T05:45:24.311Z,127.67
2019-02-04T05:47:53.772Z,130.83
2019-02-04T05:50:23.222Z,116.13
2019-02-04T05:52:52.700Z,128.20
2019-02-04T05:55:23.293Z,171.00
2019-02-04T05:57:52.696Z,146.10
2019-02-04T06:00:40.036Z,130.40
2019-02-04T06:03:09.527Z,109.23
2019-02-04T06:05:38.909Z,110.30
2019-02-04T06:08:08.456Z,123.37
2019-02-04T06:10:38.324Z,121.07
2019-02-04T06:13:07.739Z,120.70
2019-02-04T06:15:37.502Z,122.47
2019-02-04T06:18:07.097Z,122.03
2019-02-04T06:20:36.837Z,124.00
2019-02-04T06:23:06.281Z,126.67
2019-02-04T06:25:35.782Z,121.47
2019-02-04T06:28:05.381Z,128.00
2019-02-04T06:30:34.813Z,141.77
2019-02-04T06:33:04.197Z,124.20
2019-02-04T06:35:33.697Z,127.80
2019-02-04T06:38:03.362Z,128.70
2019-02-04T06:40:32.747Z,124.70
2019-02-04T06:43:02.163Z,123.70
2019-02-04T06:45:31.715Z,129.17
2019-02-04T06:48:01.206Z,125.43
2019-02-04T06:50:30.745Z,129.27
2019-02-04T06:53:00.258Z,133.47
2019-02-04T06:55:31.655Z,133.90
2019-02-04T06:58:01.097Z,128.27
2019-02-04T07:00:30.626Z,140.03
2019-02-04T07:03:00.513Z,136.70
2019-02-04T07:05:30.011Z,134.40
2019-02-04T07:07:59.665Z,129.97
2019-02-04T07:10:29.224Z,140.90
2019-02-04T07:12:58.744Z,134.60
2019-02-04T07:15:28.300Z,119.37
2019-02-04T07:18:01.748Z,136.80
2019-02-04T07:20:29.615Z,140.07
2019-02-04T07:22:59.130Z,139.93
2019-02-04T07:25:28.628Z,137.73
2019-02-04T07:27:58.039Z,121.20
2019-02-04T07:30:27.991Z,116.93
2019-02-04T07:32:57.642Z,105.20
2019-02-04T07:35:27.241Z,101.87
2019-02-04T07:37:57.003Z,93.80
2019-02-04T07:40:28.569Z,100.80
2019-02-04T07:42:57.998Z,103.97
2019-02-04T07:45:27.725Z,95.30
2019-02-04T07:47:57.311Z,85.20
2019-02-04T07:50:26.808Z,106.93
2019-02-04T07:52:56.565Z,77.47
2019-02-04T07:55:26.060Z,77.30
2019-02-04T07:57:57.253Z,66.13
2019-02-04T08:00:31.604Z,68.53
2019-02-04T08:03:01.337Z,75.37
2019-02-04T08:05:31.062Z,61.17
2019-02-04T08:08:01.091Z,68.27
2019-02-04T08:10:30.476Z,79.03
2019-02-04T08:13:01.793Z,70.20
2019-02-04T08:15:33.851Z,73.00
2019-02-04T08:18:03.364Z,88.73
2019-02-04T08:20:32.801Z,59.87
2019-02-04T08:23:02.215Z,73.03
2019-02-04T08:25:31.704Z,59.57
2019-02-04T08:28:01.285Z,61.80
2019-02-04T08:30:32.830Z,53.10
2019-02-04T08:33:02.622Z,52.43
2019-02-04T08:35:32.501Z,52.53
2019-02-04T08:38:02.403Z,51.10
2019-02-04T08:40:31.873Z,61.27
2019-02-04T08:43:01.356Z,49.87
2019-02-04T08:45:31.164Z,47.57
2019-02-04T08:48:00.660Z,55.70
2019-02-04T08:50:30.282Z,48.57
2019-02-04T08:52:59.809Z,57.87
2019-02-04T08:55:29.197Z,46.57
2019-02-04T08:57:58.593Z,61.93
2019-02-04T09:00:28.424Z,58.13
2019-02-04T09:02:57.902Z,54.13
2019-02-04T09:05:27.286Z,45.03
2019-02-04T09:07:56.700Z,58.17
2019-02-04T09:10:31.551Z,53.20
2019-02-04T09:13:01.565Z,53.70
2019-02-04T09:15:30.970Z,60.13
2019-02-04T09:18:01.286Z,47.80
2019-02-04T09:20:31.099Z,49.67
2019-02-04T09:23:01.288Z,54.27
2019-02-04T09:25:31.020Z,57.47
2019-02-04T09:28:00.569Z,62.57
2019-02-04T09:30:30.190Z,54.10
2019-02-04T09:33:00.269Z,57.00
2019-02-04T09:35:29.799Z,60.50
2019-02-04T09:37:59.377Z,65.03
2019-02-04T09:40:40.962Z,57.03
2019-02-04T09:43:10.608Z,57.63
2019-02-04T09:45:40.850Z,61.07
2019-02-04T09:48:12.757Z,48.43
2019-02-04T09:50:42.144Z,49.27
2019-02-04T09:53:11.803Z,50.63
2019-02-04T09:55:41.331Z,52.97
2019-02-04T09:58:10.830Z,66.43
2019-02-04T10:00:40.228Z,52.60
2019-02-04T10:03:09.863Z,57.93
2019-02-04T10:05:39.868Z,56.57
2019-02-04T10:08:09.462Z,52.13
2019-02-04T10:10:38.945Z,46.00
2019-02-04T10:13:09.405Z,54.03
2019-02-04T10:15:40.313Z,57.90
2019-02-04T10:18:11.245Z,46.73
2019-02-04T10:20:40.963Z,47.50
2019-02-04T10:23:10.740Z,45.60
2019-02-04T10:25:42.084Z,54.63
2019-02-04T10:28:12.599Z,44.87
2019-02-04T10:30:42.207Z,44.63
2019-02-04T10:33:11.867Z,46.13
2019-02-04T10:35:41.757Z,51.13
2019-02-04T10:38:11.265Z,59.73
2019-02-04T10:40:40.818Z,44.73
2019-02-04T10:43:10.692Z,47.50
2019-02-04T10:45:40.070Z,48.83
2019-02-04T10:48:10.112Z,49.97
2019-02-04T10:50:46.392Z,44.30
2019-02-04T10:53:11.797Z,43.70
2019-02-04T10:55:41.396Z,34.20
2019-02-04T10:58:12.730Z,38.97
2019-02-04T11:00:42.727Z,42.33
2019-02-04T11:03:12.187Z,41.40
2019-02-04T11:05:42.074Z,45.63
2019-02-04T11:08:12.608Z,41.17
2019-02-04T11:10:42.650Z,43.40
2019-02-04T11:13:17.289Z,35.03
2019-02-04T11:15:48.852Z,42.53
2019-02-04T11:18:19.279Z,40.17
2019-02-04T11:20:57.632Z,35.13
2019-02-04T11:23:19.808Z,34.47
2019-02-04T11:25:49.389Z,34.43
2019-02-04T11:28:19.453Z,38.23
2019-02-04T11:30:55.057Z,33.73
2019-02-04T11:33:24.577Z,35.47
2019-02-04T11:35:54.051Z,33.97
2019-02-04T11:38:23.758Z,33.17
2019-02-04T11:40:53.819Z,31.10
2019-02-04T11:43:23.295Z,31.70
2019-02-04T11:45:54.956Z,35.50
2019-02-04T11:48:24.355Z,32.37
2019-02-04T11:50:53.860Z,34.47
2019-02-04T11:53:32.290Z,28.30
2019-02-04T11:55:54.507Z,32.53
2019-02-04T11:58:23.896Z,33.77
2019-02-04T12:00:53.643Z,31.87
2019-02-04T12:03:23.193Z,37.53
2019-02-04T12:05:52.585Z,31.60
2019-02-04T12:08:22.044Z,27.03
2019-02-04T12:11:07.565Z,26.20
2019-02-04T12:13:37.098Z,27.40
2019-02-04T12:16:06.686Z,29.60
2019-02-04T12:18:36.361Z,55.90
2019-02-04T12:21:06.044Z,33.23
2019-02-04T12:23:36.542Z,26.83
2019-02-04T12:26:06.458Z,34.57
2019-02-04T12:28:35.945Z,31.43
2019-02-04T12:31:06.041Z,33.80
2019-02-04T12:33:35.480Z,32.00
2019-02-04T12:36:05.161Z,31.63
2019-02-04T12:38:34.663Z,29.07
2019-02-04T12:41:04.370Z,26.80
2019-02-04T12:43:33.753Z,26.93
2019-02-04T12:46:03.240Z,29.27
2019-02-04T12:48:32.770Z,30.47
2019-02-04T12:51:02.257Z,29.57
2019-02-04T12:53:31.845Z,29.50
2019-02-04T12:56:01.275Z,29.30
2019-02-04T12:58:30.676Z,38.67
2019-02-04T13:01:00.141Z,30.97
2019-02-04T13:03:30.306Z,32.80
2019-02-04T13:06:01.526Z,32.37
2019-02-04T13:08:30.913Z,34.17
2019-02-04T13:11:00.708Z,32.33
2019-02-04T13:13:30.317Z,27.80
2019-02-04T13:15:59.704Z,36.47
2019-02-04T13:18:29.147Z,40.20
2019-02-04T13:20:58.673Z,33.43
2019-02-04T13:23:28.257Z,26.20
2019-02-04T13:25:57.966Z,26.97
2019-02-04T13:28:27.473Z,22.30
2019-02-04T13:30:56.959Z,35.43
2019-02-04T13:33:26.488Z,29.53
2019-02-04T13:35:55.862Z,27.57
2019-02-04T13:38:25.371Z,30.80
2019-02-04T13:40:54.895Z,22.30
2019-02-04T13:43:24.504Z,26.07
2019-02-04T13:45:54.296Z,29.83
2019-02-04T13:48:24.054Z,26.43
2019-02-04T13:50:53.539Z,29.83
2019-02-04T13:53:23.027Z,27.20
2019-02-04T13:55:52.600Z,33.00
2019-02-04T13:58:21.995Z,31.33
2019-02-04T14:00:51.758Z,28.20
2019-02-04T14:03:21.283Z,26.77
2019-02-04T14:05:50.660Z,22.67
2019-02-04T14:08:20.026Z,33.87
2019-02-04T14:10:49.538Z,38.33
2019-02-04T14:13:18.932Z,30.80
2019-02-04T14:15:48.520Z,37.20
2019-02-04T14:18:18.028Z,34.37
2019-02-04T14:20:47.527Z,44.20
2019-02-04T14:23:17.266Z,32.43
2019-02-04T14:25:47.062Z,33.43
2019-02-04T14:28:16.911Z,31.73
2019-02-04T14:30:46.430Z,38.77
2019-02-04T14:33:15.846Z,49.00
2019-02-04T14:35:45.328Z,34.30
2019-02-04T14:38:14.909Z,33.97
2019-02-04T14:40:44.589Z,43.73
2019-02-04T14:43:44.861Z,37.40
2019-02-04T14:46:50.365Z,41.40
2019-02-04T14:49:42.864Z,40.47
2019-02-04T14:52:49.039Z,35.37
2019-02-04T14:55:54.992Z,35.50
2019-02-04T14:59:06.523Z,40.17
2019-02-04T15:02:24.789Z,39.67
2019-02-04T15:05:30.758Z,37.73
2019-02-04T15:08:40.837Z,34.07
2019-02-04T15:11:37.911Z,38.53
2019-02-04T15:14:30.531Z,35.03
2019-02-04T15:17:07.947Z,33.20
2019-02-04T15:20:27.250Z,36.13
2019-02-04T15:23:27.276Z,56.97
2019-02-04T15:26:46.406Z,43.53
2019-02-04T15:29:54.053Z,46.63
2019-02-04T15:32:44.003Z,51.50
2019-02-04T15:35:49.120Z,53.87
2019-02-04T15:38:54.716Z,51.67
2019-02-04T15:41:58.528Z,73.13
2019-02-04T15:44:53.409Z,48.57
2019-02-04T15:47:54.535Z,47.40
2019-02-04T15:51:12.580Z,42.63
2019-02-04T15:53:42.002Z,45.23
2019-02-04T15:56:11.659Z,60.00
2019-02-04T15:58:41.155Z,64.00
2019-02-04T16:01:11.051Z,72.80
2019-02-04T16:03:40.425Z,81.13
2019-02-04T16:06:09.826Z,120.47
2019-02-04T16:08:39.568Z,185.63
2019-02-04T16:11:09.327Z,185.73
2019-02-04T16:13:38.746Z,120.37
2019-02-04T16:16:08.169Z,116.90
2019-02-04T16:18:37.654Z,134.97
2019-02-04T16:21:07.281Z,154.60
2019-02-04T16:23:36.917Z,161.60
2019-02-04T16:26:06.530Z,133.03
2019-02-04T16:28:36.006Z,128.63
2019-02-04T16:31:05.870Z,136.17
2019-02-04T16:33:35.300Z,121.37
2019-02-04T16:36:04.833Z,111.47
2019-02-04T16:38:34.667Z,112.67
2019-02-04T16:41:04.158Z,108.30
2019-02-04T16:43:33.648Z,128.50
2019-02-04T16:46:03.120Z,113.73
2019-02-04T16:48:32.629Z,114.63
2019-02-04T16:51:11.290Z,112.23
2019-02-04T16:53:33.346Z,103.00
2019-02-04T16:56:02.766Z,116.77
2019-02-04T16:58:32.275Z,120.37
2019-02-04T17:01:01.996Z,105.60
2019-02-04T17:03:31.578Z,114.80
2019-02-04T17:06:01.070Z,107.30
2019-02-04T17:08:30.945Z,106.37
2019-02-04T17:11:00.384Z,101.87
2019-02-04T17:13:29.989Z,98.77
2019-02-04T17:15:59.668Z,95.70
2019-02-04T17:18:29.080Z,98.80
2019-02-04T17:20:58.669Z,108.53
2019-02-04T17:23:28.536Z,174.67
2019-02-04T17:25:59.752Z,133.93
2019-02-04T17:28:29.155Z,134.97
2019-02-04T17:30:58.638Z,131.20
2019-02-04T17:33:28.162Z,143.63
2019-02-04T17:35:58.783Z,176.83
2019-02-04T17:38:28.404Z,168.20
2019-02-04T17:40:57.874Z,156.80
2019-02-04T17:43:27.500Z,188.70
2019-02-04T17:45:56.980Z,393.73
2019-02-04T17:48:26.501Z,194.30
2019-02-04T17:50:55.994Z,192.50
2019-02-04T17:53:33.942Z,211.53
2019-02-04T17:55:56.714Z,203.57
2019-02-04T17:58:26.208Z,158.73
2019-02-04T18:00:55.887Z,156.37
2019-02-04T18:03:25.313Z,208.20
2019-02-04T18:05:55.027Z,155.77
2019-02-04T18:08:24.639Z,149.93
2019-02-04T18:10:54.129Z,188.37
2019-02-04T18:13:23.680Z,200.33
2019-02-04T18:15:53.144Z,191.40
2019-02-04T18:18:22.674Z,189.87
2019-02-04T18:20:52.676Z,288.73
2019-02-04T18:23:22.162Z,259.60
2019-02-04T18:25:51.962Z,309.00
2019-02-04T18:28:21.384Z,572.50
2019-02-04T18:30:50.858Z,432.70
2019-02-04T18:33:20.383Z,478.27
2019-02-04T18:35:49.885Z,387.83
2019-02-04T18:38:19.358Z,205.87
2019-02-04T18:40:48.969Z,207.77
2019-02-04T18:43:18.492Z,230.33
2019-02-04T18:45:48.171Z,286.43
2019-02-04T18:48:17.593Z,261.27
2019-02-04T18:50:47.314Z,463.33
2019-02-04T18:53:16.882Z,544.20
2019-02-04T18:55:46.493Z,412.07
2019-02-04T18:58:15.902Z,314.87
2019-02-04T19:00:45.745Z,298.03
2019-02-04T19:03:17.400Z,237.87
2019-02-04T19:05:46.687Z,226.80
2019-02-04T19:08:16.284Z,260.23
2019-02-04T19:10:45.692Z,269.77
2019-02-04T19:13:15.191Z,268.23
2019-02-04T19:15:45.001Z,280.43
2019-02-04T19:18:18.609Z,283.40
2019-02-04T19:20:47.419Z,323.60
2019-02-04T19:23:17.095Z,337.77
2019-02-04T19:25:46.578Z,309.33
2019-02-04T19:28:15.972Z,293.67
2019-02-04T19:30:49.134Z,276.17
2019-02-04T19:33:18.739Z,199.57
2019-02-04T19:35:48.254Z,147.97
2019-02-04T19:38:17.695Z,139.30
2019-02-04T19:40:47.102Z,155.53
2019-02-04T19:43:16.864Z,153.63
2019-02-04T19:45:46.327Z,135.63
2019-02-04T19:48:16.114Z,144.23
2019-02-04T19:50:45.585Z,89.17
2019-02-04T19:53:15.035Z,89.13
2019-02-04T19:55:44.450Z,119.07
2019-02-04T19:58:14.043Z,101.53
2019-02-04T20:00:43.710Z,113.53
2019-02-04T20:03:13.133Z,106.43
2019-02-04T20:05:42.645Z,101.23
2019-02-04T20:08:12.317Z,100.40
2019-02-04T20:10:41.902Z,83.57
2019-02-04T20:13:11.570Z,96.93
2019-02-04T20:15:41.167Z,103.87
2019-02-04T20:18:10.672Z,104.97
2019-02-04T20:20:42.451Z,99.90
2019-02-04T20:23:11.478Z,107.10
2019-02-04T20:25:40.969Z,83.37
2019-02-04T20:28:10.455Z,80.93
2019-02-04T20:30:45.633Z,84.40
2019-02-04T20:33:12.558Z,80.13
2019-02-04T20:35:42.150Z,70.87
2019-02-04T20:38:13.526Z,80.57
2019-02-04T20:40:43.320Z,75.60
2019-02-04T20:43:12.889Z,84.40
2019-02-04T20:45:42.438Z,93.97
2019-02-04T20:48:14.056Z,98.37
2019-02-04T20:50:44.615Z,106.07
2019-02-04T20:53:15.150Z,119.17
2019-02-04T20:55:44.945Z,107.23
2019-02-04T20:58:14.382Z,102.73
2019-02-04T21:00:43.851Z,90.70
2019-02-04T21:03:13.355Z,85.20
2019-02-04T21:05:42.786Z,92.83
2019-02-04T21:08:12.342Z,90.70
2019-02-04T21:10:41.847Z,85.17
2019-02-04T21:13:11.406Z,95.63
2019-02-04T21:15:41.136Z,109.63
2019-02-04T21:18:10.654Z,122.20
2019-02-04T21:20:40.162Z,106.90
2019-02-04T21:23:09.626Z,95.93
2019-02-04T21:25:39.047Z,91.90
2019-02-04T21:28:08.571Z,91.67
2019-02-04T21:30:40.554Z,103.63
2019-02-04T21:33:09.964Z,107.87
2019-02-04T21:35:39.489Z,109.73
2019-02-04T21:38:09.437Z,97.90
2019-02-04T21:40:39.525Z,94.00
2019-02-04T21:43:08.965Z,86.97
2019-02-04T21:45:38.588Z,86.13
2019-02-04T21:48:07.980Z,89.97
2019-02-04T21:50:37.399Z,92.53
2019-02-04T21:53:07.923Z,87.57
2019-02-04T21:55:37.413Z,96.80
2019-02-04T21:58:07.364Z,101.93
2019-02-04T22:00:38.894Z,95.23
2019-02-04T22:03:09.633Z,97.13
2019-02-04T22:05:39.145Z,101.93
2019-02-04T22:08:08.621Z,100.30
2019-02-04T22:10:38.104Z,118.80
2019-02-04T22:13:07.689Z,100.50
2019-02-04T22:15:37.718Z,111.77
2019-02-04T22:18:07.410Z,114.60
2019-02-04T22:20:37.327Z,111.83
2019-02-04T22:23:06.791Z,114.47
2019-02-04T22:25:36.345Z,127.13
2019-02-04T22:28:06.203Z,106.13
2019-02-04T22:30:35.648Z,103.97
2019-02-04T22:33:05.471Z,98.70
2019-02-04T22:35:34.878Z,97.33
2019-02-04T22:38:05.048Z,96.10
2019-02-04T22:40:34.471Z,101.90
2019-02-04T22:43:04.008Z,98.17
2019-02-04T22:45:33.660Z,100.10
2019-02-04T22:48:03.063Z,96.33
2019-02-04T22:50:33.207Z,102.20
2019-02-04T22:53:02.991Z,101.90
2019-02-04T22:55:32.899Z,90.13
2019-02-04T22:58:02.602Z,118.93
2019-02-04T23:00:50.287Z,117.17
2019-02-04T23:03:21.558Z,111.17
2019-02-04T23:05:51.268Z,106.57
2019-02-04T23:08:20.729Z,97.37
2019-02-04T23:10:50.264Z,111.43
2019-02-04T23:13:19.693Z,101.03
2019-02-04T23:15:49.148Z,101.83
2019-02-04T23:18:18.551Z,99.33
2019-02-04T23:20:47.984Z,97.43
2019-02-04T23:23:17.453Z,109.93
2019-02-04T23:25:47.214Z,107.97
2019-02-04T23:28:16.707Z,104.37
2019-02-04T23:30:46.544Z,104.47
2019-02-04T23:33:17.072Z,94.80
2019-02-04T23:35:46.588Z,102.03
2019-02-04T23:38:16.044Z,107.67
2019-02-04T23:40:45.612Z,97.83
2019-02-04T23:43:15.118Z,99.47
2019-02-04T23:45:44.737Z,97.93
2019-02-04T23:48:14.268Z,101.70
2019-02-04T23:50:43.762Z,102.13
2019-02-04T23:53:13.254Z,96.47
2019-02-04T23:55:54.095Z,91.60
2019-02-04T23:58:13.921Z,95.73
